Time;durP1;ratioP1;P1;durP2;ratioP2;P2;SDS_P1;SDS_P2;PMS_P1;PMS_P2;Temp;Humidity;BMP_temperature;BMP_pressure;BME280_temperature;BME280_humidity;BME280_pressure;Samples;Min_cycle;Max_cycle;Signal;HPM_P1;HPM_P2
2022/05/11 00:02:25;;;;;;;17.33;10.48;;;13.00;99.90;;;;;;5010642;28;20132;-82
2022/05/11 00:04:51;;;;;;;17.67;11.07;;;13.00;99.90;;;;;;5009786;28;20044;-81
2022/05/11 00:07:16;;;;;;;19.20;10.77;;;13.00;99.90;;;;;;5008652;28;20481;-83
2022/05/11 00:09:42;;;;;;;20.60;13.20;;;13.00;99.90;;;;;;5008843;28;20038;-82
2022/05/11 00:12:08;;;;;;;22.92;12.40;;;13.10;99.90;;;;;;5007606;28;20096;-81
2022/05/11 00:14:34;;;;;;;22.55;11.30;;;13.10;99.90;;;;;;5009659;28;20080;-83
2022/05/11 00:17:00;;;;;;;18.30;11.20;;;13.10;99.90;;;;;;5010418;28;20038;-82
2022/05/11 00:19:27;;;;;;;20.60;10.68;;;13.10;99.90;;;;;;5009172;28;20057;-82
2022/05/11 00:21:53;;;;;;;17.25;12.15;;;13.10;99.90;;;;;;5007997;28;20041;-81
2022/05/11 00:24:19;;;;;;;27.63;12.70;;;13.20;99.90;;;;;;5009806;28;20042;-82
2022/05/11 00:26:45;;;;;;;20.75;12.65;;;13.20;99.90;;;;;;5009045;28;20044;-81
2022/05/11 00:29:10;;;;;;;25.20;15.00;;;13.20;99.90;;;;;;5009703;28;20195;-79
2022/05/11 00:31:36;;;;;;;16.38;12.13;;;13.20;99.90;;;;;;5006850;28;20111;-81
2022/05/11 00:34:02;;;;;;;20.35;12.32;;;13.20;99.90;;;;;;5008914;28;20045;-82
2022/05/11 00:36:28;;;;;;;15.68;12.05;;;13.20;99.90;;;;;;5007781;28;20049;-82
2022/05/11 00:38:53;;;;;;;15.65;11.90;;;13.20;99.90;;;;;;5007280;28;20042;-82
2022/05/11 00:41:19;;;;;;;20.63;11.43;;;13.20;99.90;;;;;;5008441;28;20046;-82
2022/05/11 00:43:57;;;;;;;20.30;13.05;;;13.20;99.90;;;;;;5006803;28;20049;-82
2022/05/11 00:46:29;;;;;;;15.55;12.98;;;13.30;99.90;;;;;;5006931;28;20240;-82
2022/05/11 00:51:51;;;;;;;20.23;13.00;;;13.20;99.90;;;;;;5007023;28;20084;-82
2022/05/11 00:54:20;;;;;;;17.33;12.63;;;13.20;99.90;;;;;;5007485;28;20054;-82
2022/05/11 00:56:54;;;;;;;19.17;12.48;;;13.20;99.90;;;;;;5008636;28;20038;-82
2022/05/11 00:59:24;;;;;;;18.25;12.40;;;13.20;99.90;;;;;;5008030;28;20038;-82
2022/05/11 01:01:50;;;;;;;15.48;11.75;;;13.30;99.90;;;;;;5007959;28;20046;-82
2022/05/11 01:04:19;;;;;;;17.98;11.35;;;13.20;99.90;;;;;;5007913;28;20096;-82
2022/05/11 01:06:45;;;;;;;19.10;10.75;;;13.30;99.90;;;;;;5007361;28;20046;-81
2022/05/11 01:09:12;;;;;;;12.90;10.20;;;13.20;99.90;;;;;;5008801;28;20103;-82
2022/05/11 01:11:48;;;;;;;14.32;10.88;;;13.20;99.90;;;;;;5008040;28;20504;-82
2022/05/11 01:14:19;;;;;;;14.60;10.10;;;13.20;99.90;;;;;;5007993;28;20112;-81
2022/05/11 01:16:46;;;;;;;15.43;10.38;;;13.20;99.90;;;;;;5007654;28;20083;-81
2022/05/11 01:19:25;;;;;;;15.80;10.10;;;13.20;99.90;;;;;;5007542;28;20435;-81
2022/05/11 01:22:05;;;;;;;20.58;11.75;;;13.20;99.90;;;;;;5006662;28;20093;-82
2022/05/11 01:24:34;;;;;;;19.58;11.23;;;13.30;99.90;;;;;;5008307;28;20038;-80
2022/05/11 01:27:28;;;;;;;14.77;11.20;;;13.20;99.90;;;;;;5008435;28;20409;-82
2022/05/11 01:30:22;;;;;;;15.88;10.57;;;13.20;99.90;;;;;;5007875;28;20084;-82
2022/05/11 01:32:50;;;;;;;14.73;9.13;;;13.30;99.90;;;;;;5006364;28;20485;-81
2022/05/11 01:35:39;;;;;;;20.00;11.15;;;13.20;99.90;;;;;;5005597;28;20122;-82
2022/05/11 01:38:24;;;;;;;14.52;10.05;;;13.30;99.90;;;;;;5007667;28;20096;-81
2022/05/11 01:40:49;;;;;;;14.45;9.55;;;13.20;99.90;;;;;;5006822;28;20508;-82
2022/05/11 01:43:37;;;;;;;13.30;10.32;;;13.30;99.90;;;;;;5006349;28;20074;-82
2022/05/11 01:46:04;;;;;;;14.20;10.65;;;13.30;99.90;;;;;;5007187;28;20041;-82
2022/05/11 01:48:30;;;;;;;11.82;9.57;;;13.30;99.90;;;;;;5008884;23;20049;-79
2022/05/11 01:50:57;;;;;;;18.30;10.57;;;13.20;99.90;;;;;;4987111;28;20125;-81
2022/05/11 01:53:23;;;;;;;14.55;9.88;;;13.20;99.90;;;;;;4989168;28;20739;-81
2022/05/11 01:55:49;;;;;;;19.00;10.43;;;13.20;99.90;;;;;;4987595;28;20492;-80
2022/05/11 01:58:16;;;;;;;11.60;8.25;;;13.20;99.90;;;;;;4987427;28;20060;-82
2022/05/11 02:00:44;;;;;;;12.07;9.35;;;13.20;99.90;;;;;;4987666;28;20094;-81
2022/05/11 02:03:10;;;;;;;15.40;9.88;;;13.20;99.90;;;;;;4987582;28;20062;-82
2022/05/11 02:08:20;;;;;;;10.38;8.60;;;13.20;99.90;;;;;;4987151;28;20054;-80
2022/05/11 02:10:46;;;;;;;14.82;10.60;;;13.20;99.90;;;;;;4987469;28;20393;-82
2022/05/11 02:13:13;;;;;;;15.50;9.82;;;13.20;99.90;;;;;;4987272;28;20058;-81
2022/05/11 02:15:39;;;;;;;15.82;10.27;;;13.20;99.90;;;;;;4986236;28;20046;-83
2022/05/11 02:18:05;;;;;;;12.27;8.68;;;13.20;99.90;;;;;;4989035;28;20060;-82
2022/05/11 02:20:32;;;;;;;18.35;9.75;;;13.10;99.90;;;;;;4988212;28;20454;-83
2022/05/11 02:22:58;;;;;;;14.35;9.85;;;13.20;99.90;;;;;;4988939;28;20050;-82
2022/05/11 02:25:24;;;;;;;17.20;10.05;;;13.20;99.90;;;;;;4989212;28;20073;-80
2022/05/11 02:27:50;;;;;;;14.50;9.13;;;13.20;99.90;;;;;;4989750;28;20069;-80
2022/05/11 02:30:31;;;;;;;14.40;8.95;;;13.20;99.90;;;;;;4990299;28;20378;-82
2022/05/11 02:32:57;;;;;;;12.57;9.32;;;13.20;99.90;;;;;;4988911;28;20046;-82
2022/05/11 02:35:24;;;;;;;10.50;9.25;;;13.20;99.90;;;;;;4987840;28;20128;-82
2022/05/11 02:38:02;;;;;;;18.42;10.35;;;13.20;99.90;;;;;;4991338;28;20038;-83
2022/05/11 02:40:31;;;;;;;13.48;9.02;;;13.10;99.90;;;;;;4992306;28;20053;-82
2022/05/11 02:42:57;;;;;;;15.90;7.90;;;13.10;99.90;;;;;;4989838;28;20046;-82
2022/05/11 02:45:24;;;;;;;15.82;8.77;;;13.10;99.90;;;;;;4987361;28;20047;-80
2022/05/11 02:47:52;;;;;;;11.60;9.98;;;13.10;99.90;;;;;;4986590;28;20477;-81
2022/05/11 02:50:23;;;;;;;12.85;8.80;;;13.00;99.90;;;;;;4986065;28;20109;-82
2022/05/11 02:52:48;;;;;;;11.35;8.05;;;13.10;99.90;;;;;;4986349;28;20042;-83
2022/05/11 02:55:15;;;;;;;14.85;9.45;;;13.10;99.90;;;;;;4986913;28;20057;-83
2022/05/11 02:57:41;;;;;;;13.48;7.95;;;13.10;99.90;;;;;;4986526;28;20042;-80
2022/05/11 03:00:11;;;;;;;13.93;9.18;;;13.10;99.90;;;;;;4986673;28;20457;-82
2022/05/11 03:02:36;;;;;;;14.75;7.47;;;13.10;99.90;;;;;;4986895;28;20051;-82
2022/05/11 03:05:03;;;;;;;14.70;9.57;;;13.10;99.90;;;;;;4985709;28;20357;-77
2022/05/11 03:07:29;;;;;;;12.85;8.05;;;13.10;99.90;;;;;;4985886;28;20115;-79
2022/05/11 03:09:54;;;;;;;15.68;8.93;;;13.00;99.90;;;;;;4986761;28;20505;-80
2022/05/11 03:12:22;;;;;;;12.65;9.13;;;13.10;99.90;;;;;;4985047;28;20407;-79
2022/05/11 03:14:49;;;;;;;12.75;7.47;;;13.00;99.90;;;;;;4984843;28;20046;-80
2022/05/11 03:17:15;;;;;;;12.98;6.72;;;13.10;99.90;;;;;;4986461;28;20429;-82
2022/05/11 03:19:41;;;;;;;13.00;6.78;;;13.10;99.90;;;;;;4985265;28;20053;-82
2022/05/11 03:22:06;;;;;;;15.93;7.53;;;13.10;99.90;;;;;;4986458;28;20042;-82
2022/05/11 03:24:32;;;;;;;11.38;7.50;;;13.10;99.90;;;;;;4985529;28;20493;-82
2022/05/11 03:26:57;;;;;;;11.05;7.68;;;13.10;99.90;;;;;;4986690;28;20046;-82
2022/05/11 03:29:23;;;;;;;11.90;6.70;;;13.00;99.90;;;;;;4986445;28;20046;-82
2022/05/11 03:34:37;;;;;;;15.32;8.27;;;13.00;99.90;;;;;;4985877;28;20074;-83
2022/05/11 03:37:14;;;;;;;9.38;6.95;;;13.00;99.90;;;;;;4986277;28;20085;-79
2022/05/11 03:39:40;;;;;;;9.40;6.38;;;13.00;99.90;;;;;;4986071;28;20120;-81
2022/05/11 03:42:10;;;;;;;14.02;5.88;;;13.00;99.90;;;;;;4986350;28;20501;-82
2022/05/11 03:44:36;;;;;;;9.20;5.70;;;13.00;99.90;;;;;;4986208;28;20130;-82
2022/05/11 03:47:02;;;;;;;11.98;6.20;;;13.00;99.90;;;;;;4986252;28;20129;-81
2022/05/11 03:49:28;;;;;;;9.15;5.95;;;13.00;99.90;;;;;;4985467;28;20050;-80
2022/05/11 03:51:54;;;;;;;14.57;6.57;;;13.00;99.90;;;;;;4986178;28;20441;-83
2022/05/11 03:54:19;;;;;;;16.88;6.57;;;13.00;99.90;;;;;;4984566;28;20046;-76
2022/05/11 03:56:45;;;;;;;8.80;5.75;;;13.00;99.90;;;;;;4986488;28;20401;-82
2022/05/11 03:59:11;;;;;;;13.95;6.50;;;13.00;99.90;;;;;;4986204;28;20042;-82
2022/05/11 04:01:37;;;;;;;11.55;5.80;;;13.00;99.90;;;;;;4986371;28;20178;-81
2022/05/11 04:04:03;;;;;;;9.85;5.88;;;13.00;99.90;;;;;;5001612;28;20545;-81
2022/05/11 04:06:29;;;;;;;8.20;5.75;;;13.00;99.90;;;;;;4988245;28;20093;-81
2022/05/11 04:08:55;;;;;;;8.88;5.32;;;13.00;99.90;;;;;;4989674;28;20080;-81
2022/05/11 04:11:22;;;;;;;13.55;5.85;;;13.00;99.90;;;;;;4989270;28;20042;-80
2022/05/11 04:13:49;;;;;;;10.10;6.30;;;13.00;99.90;;;;;;4989501;28;20061;-81
2022/05/11 04:16:16;;;;;;;14.88;6.25;;;12.90;99.90;;;;;;4989467;28;20039;-80
2022/05/11 04:18:42;;;;;;;10.90;6.60;;;13.00;99.90;;;;;;4989592;28;20445;-82
2022/05/11 04:21:09;;;;;;;11.23;6.85;;;13.00;99.90;;;;;;4988538;28;20038;-80
2022/05/11 04:23:35;;;;;;;11.85;7.50;;;13.00;99.90;;;;;;4989550;28;20053;-81
2022/05/11 04:26:01;;;;;;;11.27;5.63;;;13.10;99.90;;;;;;4989788;28;20120;-82
2022/05/11 04:28:27;;;;;;;11.25;6.50;;;13.00;99.90;;;;;;4989261;28;20568;-81
2022/05/11 04:31:04;;;;;;;13.30;6.97;;;13.10;99.90;;;;;;4988476;28;20058;-82
2022/05/11 04:33:30;;;;;;;9.68;5.72;;;13.00;99.90;;;;;;4989648;28;20042;-81
2022/05/11 04:35:56;;;;;;;10.80;6.50;;;13.10;99.90;;;;;;4988193;28;20112;-81
2022/05/11 04:38:22;;;;;;;11.68;6.40;;;13.10;99.90;;;;;;4988855;28;20125;-81
2022/05/11 04:40:48;;;;;;;15.85;6.90;;;13.10;99.90;;;;;;4989610;28;20134;-81
2022/05/11 04:43:14;;;;;;;11.82;5.45;;;13.10;99.90;;;;;;4989070;28;20043;-80
2022/05/11 04:45:42;;;;;;;16.25;6.68;;;13.20;99.90;;;;;;4988792;28;20103;-81
2022/05/11 04:48:08;;;;;;;12.10;5.72;;;13.10;99.90;;;;;;4988775;28;20054;-78
2022/05/11 04:50:37;;;;;;;13.05;6.20;;;13.10;99.90;;;;;;4988759;28;20404;-81
2022/05/11 04:53:03;;;;;;;11.27;5.53;;;13.30;99.90;;;;;;4989065;28;20053;-83
2022/05/11 04:55:29;;;;;;;15.88;5.22;;;13.20;99.90;;;;;;4987855;28;20035;-80
2022/05/11 04:57:55;;;;;;;7.70;4.78;;;13.30;99.90;;;;;;4988771;28;20559;-80
2022/05/11 05:00:20;;;;;;;10.38;5.88;;;13.20;99.90;;;;;;4988785;28;20046;-79
2022/05/11 05:02:46;;;;;;;10.73;5.88;;;13.30;99.90;;;;;;4988823;28;20166;-80
2022/05/11 05:05:12;;;;;;;13.35;5.65;;;13.30;99.90;;;;;;4987687;28;20042;-80
2022/05/11 05:07:39;;;;;;;12.02;5.03;;;13.30;99.90;;;;;;4989007;28;20090;-81
2022/05/11 05:10:07;;;;;;;11.25;4.88;;;13.40;99.90;;;;;;4989138;28;20101;-80
2022/05/11 05:12:34;;;;;;;14.60;6.13;;;13.40;99.90;;;;;;4988051;28;20444;-81
2022/05/11 05:15:00;;;;;;;10.80;5.53;;;13.50;99.90;;;;;;4989642;28;20044;-82
2022/05/11 05:17:26;;;;;;;23.38;6.68;;;13.40;99.90;;;;;;4988724;28;20051;-81
2022/05/11 05:19:52;;;;;;;11.55;5.72;;;13.50;99.90;;;;;;5002954;28;20047;-81
2022/05/11 05:22:18;;;;;;;15.30;5.55;;;13.50;99.90;;;;;;5004863;28;20046;-81
2022/05/11 05:24:44;;;;;;;10.35;5.57;;;13.50;99.90;;;;;;4989161;28;20085;-81
2022/05/11 05:27:15;;;;;;;11.98;5.30;;;13.50;99.90;;;;;;4988402;28;20081;-80
2022/05/11 05:32:25;;;;;;;12.95;5.47;;;13.50;99.90;;;;;;4987811;28;20050;-82
2022/05/11 05:34:51;;;;;;;12.70;5.35;;;13.60;99.90;;;;;;4987245;28;20533;-82
2022/05/11 05:37:18;;;;;;;9.70;4.57;;;13.60;99.90;;;;;;4988242;28;20035;-82
2022/05/11 05:39:45;;;;;;;12.63;5.07;;;13.70;99.90;;;;;;4988484;28;20129;-82
2022/05/11 05:42:23;;;;;;;14.35;4.90;;;13.70;99.90;;;;;;4988739;28;20057;-82
2022/05/11 05:44:50;;;;;;;9.88;5.82;;;13.70;99.90;;;;;;4988455;28;20070;-81
2022/05/11 05:47:16;;;;;;;9.57;4.95;;;13.80;99.90;;;;;;4989567;28;20417;-81
2022/05/11 05:49:42;;;;;;;20.85;6.15;;;13.80;99.90;;;;;;4988117;28;20066;-82
2022/05/11 05:52:14;;;;;;;13.18;5.80;;;13.80;99.90;;;;;;4989923;28;20073;-81
2022/05/11 05:54:39;;;;;;;8.15;4.28;;;13.80;99.90;;;;;;4991809;28;20076;-81
2022/05/11 05:57:05;;;;;;;14.35;5.72;;;13.90;99.90;;;;;;4992910;28;20050;-82
2022/05/11 05:59:31;;;;;;;9.43;5.50;;;13.90;99.90;;;;;;5006423;28;20038;-80
2022/05/11 06:01:57;;;;;;;12.98;5.07;;;13.90;99.90;;;;;;4988043;28;20061;-82
2022/05/11 06:04:23;;;;;;;14.00;5.03;;;14.00;99.90;;;;;;4989097;28;20113;-82
2022/05/11 06:06:48;;;;;;;10.80;4.50;;;14.00;99.90;;;;;;4991108;28;20539;-81
2022/05/11 06:09:14;;;;;;;12.98;5.57;;;14.10;99.90;;;;;;4993468;28;20106;-81
2022/05/11 06:11:39;;;;;;;15.57;5.88;;;14.30;99.90;;;;;;4993939;28;20050;-82
2022/05/11 06:14:05;;;;;;;18.90;6.78;;;14.30;99.90;;;;;;4988757;28;20125;-81
2022/05/11 06:16:32;;;;;;;15.02;6.75;;;14.40;99.90;;;;;;4989446;28;20034;-81
2022/05/11 06:18:59;;;;;;;13.02;4.47;;;14.50;99.90;;;;;;4972625;28;20093;-81
2022/05/11 06:21:25;;;;;;;27.73;7.07;;;14.60;99.90;;;;;;4988920;28;20082;-82
2022/05/11 06:23:51;;;;;;;15.55;5.28;;;14.70;99.90;;;;;;4994310;28;20100;-81
2022/05/11 06:26:19;;;;;;;11.20;4.65;;;14.80;99.90;;;;;;4991869;28;20103;-81
2022/05/11 06:28:46;;;;;;;15.93;5.85;;;14.90;99.90;;;;;;4990462;28;20105;-82
2022/05/11 06:31:13;;;;;;;19.95;6.18;;;14.90;99.90;;;;;;4991415;28;20041;-82
2022/05/11 06:33:40;;;;;;;14.95;5.45;;;14.90;99.90;;;;;;4990513;28;20054;-75
2022/05/11 06:36:08;;;;;;;12.68;5.57;;;14.70;99.90;;;;;;4990240;28;20074;-79
2022/05/11 06:38:34;;;;;;;14.23;5.20;;;14.80;99.90;;;;;;4989231;28;20084;-80
2022/05/11 06:41:10;;;;;;;13.55;4.78;;;14.70;99.90;;;;;;4987718;28;20447;-82
2022/05/11 06:43:35;;;;;;;16.75;5.45;;;14.70;99.90;;;;;;4986010;28;20100;-82
2022/05/11 06:46:01;;;;;;;15.38;5.15;;;14.70;99.90;;;;;;4988856;28;20102;-81
2022/05/11 06:48:27;;;;;;;11.80;4.18;;;14.70;99.90;;;;;;4988044;28;20062;-83
2022/05/11 06:50:52;;;;;;;16.90;4.63;;;14.70;99.90;;;;;;4986172;28;20062;-81
2022/05/11 06:53:19;;;;;;;13.90;3.67;;;14.70;99.90;;;;;;5002357;28;20042;-81
2022/05/11 07:01:14;;;;;;;12.23;3.63;;;15.00;99.90;;;;;;4985713;28;20054;-81
2022/05/11 07:03:40;;;;;;;14.02;3.08;;;15.00;99.90;;;;;;4986994;28;20070;-81
2022/05/11 07:06:06;;;;;;;12.40;3.60;;;15.00;99.90;;;;;;4985682;28;20073;-82
2022/05/11 07:08:40;;;;;;;9.77;3.33;;;15.10;99.90;;;;;;4987358;28;20089;-81
2022/05/11 07:13:52;;;;;;;16.70;4.53;;;15.10;99.90;;;;;;4984961;28;20084;-80
2022/05/11 07:16:19;;;;;;;13.57;4.70;;;15.10;99.90;;;;;;4985252;28;20190;-81
2022/05/11 07:18:45;;;;;;;16.13;3.53;;;15.10;99.90;;;;;;5001788;28;20372;-81
2022/05/11 07:21:10;;;;;;;13.10;3.40;;;15.10;99.90;;;;;;5001416;28;20046;-82
2022/05/11 07:23:36;;;;;;;13.93;3.25;;;15.20;99.90;;;;;;4985413;28;20050;-82
2022/05/11 07:26:03;;;;;;;15.10;3.50;;;15.20;99.90;;;;;;4987269;28;20046;-81
2022/05/11 07:28:28;;;;;;;16.85;3.38;;;15.30;99.90;;;;;;4987177;28;20069;-81
2022/05/11 07:30:54;;;;;;;11.88;3.22;;;15.50;99.90;;;;;;4986957;28;20047;-82
2022/05/11 07:33:21;;;;;;;11.88;3.05;;;15.60;99.90;;;;;;4990296;28;20050;-78
2022/05/11 07:35:46;;;;;;;11.80;3.33;;;15.60;99.90;;;;;;4989027;28;20042;-80
2022/05/11 07:38:15;;;;;;;14.25;4.25;;;15.60;99.90;;;;;;4969852;28;20053;-79
2022/05/11 07:40:41;;;;;;;18.80;3.78;;;15.70;99.90;;;;;;4988194;28;20121;-81
2022/05/11 07:43:08;;;;;;;11.73;3.30;;;15.70;99.90;;;;;;4990420;28;20046;-80
2022/05/11 07:45:35;;;;;;;16.27;3.38;;;15.70;99.90;;;;;;4990136;28;20481;-80
2022/05/11 07:48:01;;;;;;;15.35;4.20;;;15.70;99.90;;;;;;5005548;28;20054;-78
2022/05/11 07:50:27;;;;;;;13.82;3.83;;;15.90;99.90;;;;;;4987929;28;20405;-81
2022/05/11 07:52:54;;;;;;;14.20;3.20;;;15.70;99.90;;;;;;4989758;28;20042;-81
2022/05/11 07:55:20;;;;;;;15.73;3.95;;;16.00;99.90;;;;;;4990115;28;20146;-81
2022/05/11 08:00:31;;;;;;;15.63;3.47;;;16.00;99.90;;;;;;4990590;28;20174;-82
2022/05/11 08:02:57;;;;;;;21.63;4.85;;;16.00;99.90;;;;;;4990075;28;20675;-81
2022/05/11 08:05:23;;;;;;;17.80;5.20;;;16.10;99.90;;;;;;4988898;28;20129;-82
2022/05/11 08:07:55;;;;;;;11.00;3.88;;;16.30;99.90;;;;;;4988816;28;20407;-81
2022/05/11 08:10:29;;;;;;;16.38;3.75;;;16.20;99.90;;;;;;4990320;28;20053;-81
2022/05/11 08:12:54;;;;;;;46.95;7.20;;;16.50;99.90;;;;;;4990004;28;20390;-82
2022/05/11 08:15:23;;;;;;;13.55;3.83;;;16.80;99.90;;;;;;4991033;28;20042;-81
2022/05/11 08:17:50;;;;;;;15.88;3.78;;;16.60;99.90;;;;;;4990474;28;20133;-79
2022/05/11 08:20:23;;;;;;;17.17;5.00;;;16.50;99.90;;;;;;4988144;28;20042;-81
2022/05/11 08:22:51;;;;;;;17.23;3.60;;;16.70;99.90;;;;;;4990093;28;20069;-81
2022/05/11 08:25:20;;;;;;;17.08;4.38;;;16.60;99.90;;;;;;4990193;28;20046;-82
2022/05/11 08:27:47;;;;;;;11.50;3.90;;;16.80;99.90;;;;;;4990335;28;20125;-80
2022/05/11 08:33:19;;;;;;;15.30;4.55;;;16.80;99.90;;;;;;4932619;29;20047;-81
2022/05/11 08:35:45;;;;;;;12.75;4.28;;;16.80;99.90;;;;;;4949445;29;20047;-81
2022/05/11 08:38:11;;;;;;;19.67;3.95;;;16.70;99.90;;;;;;4968997;28;20054;-82
2022/05/11 08:40:41;;;;;;;15.65;4.05;;;16.70;99.90;;;;;;4992723;28;20053;-82
2022/05/11 08:43:12;;;;;;;16.35;3.30;;;16.60;99.90;;;;;;4991403;28;20504;-81
2022/05/11 08:45:48;;;;;;;16.63;3.90;;;16.70;99.90;;;;;;4991410;28;20382;-82
2022/05/11 08:48:47;;;;;;;15.43;4.35;;;16.90;99.90;;;;;;4991661;28;20137;-81
2022/05/11 08:51:34;;;;;;;19.00;3.90;;;16.90;99.90;;;;;;4990794;28;20404;-82
2022/05/11 08:54:13;;;;;;;17.75;4.63;;;17.00;99.90;;;;;;4990249;28;20046;-82
2022/05/11 08:56:40;;;;;;;15.20;3.65;;;17.00;99.90;;;;;;4991890;28;20046;-78
2022/05/11 08:59:11;;;;;;;17.80;5.70;;;17.10;99.90;;;;;;4993301;28;20416;-82
2022/05/11 09:01:45;;;;;;;16.02;3.90;;;16.90;99.90;;;;;;4991134;28;20034;-82
2022/05/11 09:04:15;;;;;;;16.13;4.25;;;16.80;99.90;;;;;;4990678;28;20046;-80
2022/05/11 09:06:44;;;;;;;15.82;3.25;;;16.70;99.90;;;;;;4991499;28;20047;-81
2022/05/11 09:09:10;;;;;;;16.08;3.85;;;16.80;99.90;;;;;;4991705;28;20057;-80
2022/05/11 09:11:54;;;;;;;12.50;4.00;;;17.20;99.90;;;;;;4990577;28;20072;-81
2022/05/11 09:14:39;;;;;;;19.05;5.00;;;17.60;99.90;;;;;;4990632;28;20263;-80
2022/05/11 09:17:19;;;;;;;21.05;4.85;;;17.90;99.90;;;;;;4974204;28;20054;-80
2022/05/11 09:19:53;;;;;;;16.40;4.43;;;17.90;99.90;;;;;;4992464;28;20053;-81
2022/05/11 09:22:24;;;;;;;16.02;3.45;;;18.00;99.90;;;;;;4992551;28;20443;-82
2022/05/11 09:24:56;;;;;;;16.58;4.63;;;18.20;99.90;;;;;;4994636;28;20100;-81
2022/05/11 09:27:33;;;;;;;18.52;5.25;;;18.30;99.90;;;;;;4991139;28;20038;-81
2022/05/11 09:30:04;;;;;;;19.83;3.50;;;18.30;99.90;;;;;;4971702;28;20516;-82
2022/05/11 09:32:37;;;;;;;9.05;3.55;;;18.20;99.90;;;;;;4989698;28;20050;-82
2022/05/11 09:35:20;;;;;;;15.90;4.32;;;18.20;99.90;;;;;;4986494;28;20159;-77
2022/05/11 09:37:56;;;;;;;12.93;4.03;;;18.10;99.90;;;;;;4989223;28;20038;-81
2022/05/11 09:40:23;;;;;;;16.08;5.30;;;18.30;99.90;;;;;;4988997;28;20054;-82
2022/05/11 09:42:54;;;;;;;18.58;4.47;;;18.20;99.90;;;;;;4988631;28;20038;-82
2022/05/11 09:45:39;;;;;;;14.90;3.67;;;18.40;99.90;;;;;;4989020;28;20877;-83
2022/05/11 09:48:18;;;;;;;11.65;1.83;;;18.20;99.90;;;;;;4987675;28;20081;-81
2022/05/11 09:50:47;;;;;;;10.98;3.45;;;17.90;99.90;;;;;;4987788;28;20054;-80
2022/05/11 09:53:25;;;;;;;19.92;4.57;;;18.20;99.90;;;;;;4986820;28;20042;-81
2022/05/11 09:55:50;;;;;;;13.70;2.63;;;18.30;99.90;;;;;;4988986;28;20500;-81
2022/05/11 09:58:32;;;;;;;16.73;3.90;;;18.60;99.90;;;;;;4970841;28;20046;-81
2022/05/11 10:01:10;;;;;;;12.07;3.65;;;19.00;99.90;;;;;;4987475;28;20057;-80
2022/05/11 10:03:42;;;;;;;10.05;2.28;;;18.70;99.90;;;;;;4989309;28;20109;-81
2022/05/11 10:06:09;;;;;;;16.45;4.03;;;18.60;99.90;;;;;;4988421;28;20516;-81
2022/05/11 10:08:38;;;;;;;13.93;3.20;;;18.80;99.90;;;;;;4971316;28;20427;-82
2022/05/11 10:11:13;;;;;;;14.77;5.72;;;18.50;99.90;;;;;;4988514;28;20404;-79
2022/05/11 10:13:50;;;;;;;21.75;6.85;;;18.10;99.90;;;;;;4989276;28;20042;-78
2022/05/11 10:22:22;;;;;;;14.85;2.95;;;18.70;99.90;;;;;;4989392;28;20100;-81
2022/05/11 10:25:19;;;;;;;13.18;2.53;;;18.20;99.90;;;;;;4990885;28;20053;-83
2022/05/11 10:27:58;;;;;;;11.55;3.40;;;18.10;99.90;;;;;;4988225;28;20122;-83
2022/05/11 10:30:38;;;;;;;16.40;3.50;;;18.70;99.90;;;;;;4993604;28;20058;-82
2022/05/11 10:33:10;;;;;;;18.13;5.35;;;18.20;99.90;;;;;;4988297;28;20559;-81
2022/05/11 10:35:54;;;;;;;20.73;3.95;;;18.10;99.90;;;;;;4986803;28;20078;-82
2022/05/11 10:39:08;;;;;;;13.80;3.53;;;17.90;99.90;;;;;;4987489;28;20089;-82
2022/05/11 10:41:58;;;;;;;14.68;4.38;;;18.00;99.90;;;;;;4986938;28;20061;-78
2022/05/11 10:44:33;;;;;;;14.98;3.88;;;18.10;99.90;;;;;;4986452;28;20066;-82
2022/05/11 10:47:36;;;;;;;11.27;2.78;;;17.90;99.90;;;;;;4987861;28;20132;-82
2022/05/11 10:50:10;;;;;;;12.48;3.72;;;18.30;99.90;;;;;;4987578;28;20085;-82
2022/05/11 10:52:57;;;;;;;16.38;4.40;;;18.30;99.90;;;;;;4970133;28;20083;-80
2022/05/11 10:55:47;;;;;;;17.98;2.95;;;18.20;99.90;;;;;;5002562;28;20053;-82
2022/05/11 10:58:42;;;;;;;13.13;3.17;;;18.30;99.90;;;;;;4987592;28;20096;-82
2022/05/11 11:01:13;;;;;;;16.10;4.57;;;18.20;99.90;;;;;;4987062;28;20049;-80
2022/05/11 11:04:03;;;;;;;19.90;3.00;;;18.70;99.90;;;;;;4986482;28;20042;-80
2022/05/11 11:07:13;;;;;;;16.25;4.50;;;18.80;99.90;;;;;;4988171;28;20057;-82
2022/05/11 11:10:09;;;;;;;11.48;3.58;;;18.50;99.90;;;;;;4987563;28;20047;-80
2022/05/11 11:12:48;;;;;;;15.30;3.17;;;18.20;99.90;;;;;;4988644;28;20046;-84
2022/05/11 11:15:17;;;;;;;16.95;5.63;;;17.90;99.90;;;;;;4994872;28;20520;-82
2022/05/11 11:17:46;;;;;;;16.92;4.38;;;17.90;99.90;;;;;;4995433;28;20046;-83
2022/05/11 11:20:15;;;;;;;13.50;3.05;;;17.90;99.90;;;;;;4995450;28;20038;-82
2022/05/11 11:23:00;;;;;;;15.95;4.70;;;17.60;99.90;;;;;;4997186;28;20437;-82
2022/05/11 11:25:26;;;;;;;11.10;4.07;;;17.50;99.90;;;;;;4983953;28;20042;-82
2022/05/11 11:28:14;;;;;;;14.85;4.50;;;17.40;99.90;;;;;;4998575;28;20053;-83
2022/05/11 11:31:00;;;;;;;15.27;3.75;;;17.70;99.90;;;;;;4981447;28;20441;-83
2022/05/11 11:33:30;;;;;;;13.32;3.53;;;18.30;99.90;;;;;;4993332;28;20053;-84
2022/05/11 11:36:14;;;;;;;13.25;3.47;;;18.80;99.90;;;;;;4998977;28;20050;-80
2022/05/11 11:38:40;;;;;;;18.63;5.65;;;19.20;99.90;;;;;;5003054;28;20408;-81
2022/05/11 11:41:22;;;;;;;9.80;2.63;;;19.20;99.90;;;;;;5001419;28;20526;-81
2022/05/11 11:44:00;;;;;;;11.35;2.60;;;19.20;99.90;;;;;;5000994;28;20112;-81
2022/05/11 11:46:32;;;;;;;15.48;3.78;;;19.30;99.90;;;;;;4993445;28;20050;-82
2022/05/11 11:49:04;;;;;;;15.88;3.10;;;19.50;99.90;;;;;;4992141;28;20072;-82
2022/05/11 11:51:33;;;;;;;7.40;1.90;;;19.60;99.90;;;;;;4993206;28;20072;-82
2022/05/11 11:53:59;;;;;;;8.85;2.78;;;19.70;99.90;;;;;;4993316;28;20050;-83
2022/05/11 11:56:28;;;;;;;11.07;3.72;;;19.60;99.90;;;;;;4992992;28;20081;-82
2022/05/11 11:59:06;;;;;;;9.57;3.70;;;19.80;99.90;;;;;;4992331;28;20252;-82
2022/05/11 12:01:44;;;;;;;9.55;3.45;;;19.40;99.90;;;;;;4992574;28;20121;-81
2022/05/11 12:04:30;;;;;;;7.93;1.70;;;19.20;99.90;;;;;;4991069;28;20049;-82
2022/05/11 12:15:46;;;;;;;10.13;2.97;;;18.80;99.90;;;;;;4992144;28;20129;-82
2022/05/11 12:18:24;;;;;;;12.02;3.15;;;19.00;99.90;;;;;;4992174;28;20199;-82
2022/05/11 12:20:50;;;;;;;8.02;2.42;;;18.90;99.90;;;;;;4993304;28;20456;-83
2022/05/11 12:23:23;;;;;;;9.02;2.72;;;19.00;99.90;;;;;;4992986;28;20054;-82
2022/05/11 12:25:56;;;;;;;10.55;2.08;;;19.10;99.90;;;;;;4991207;28;20042;-82
2022/05/11 12:28:27;;;;;;;7.80;2.30;;;19.30;99.90;;;;;;4991711;28;20050;-81
2022/05/11 12:30:54;;;;;;;6.72;1.73;;;19.50;99.90;;;;;;4993704;28;20053;-83
2022/05/11 12:33:28;;;;;;;7.47;1.70;;;19.50;99.90;;;;;;4987964;28;20521;-80
2022/05/11 12:35:54;;;;;;;8.35;1.55;;;19.60;99.90;;;;;;4989781;28;20416;-82
2022/05/11 12:38:40;;;;;;;7.13;2.05;;;19.80;99.90;;;;;;4988208;28;20042;-78
2022/05/11 12:41:18;;;;;;;8.48;1.98;;;19.80;99.90;;;;;;4989896;28;20453;-82
2022/05/11 12:43:56;;;;;;;8.98;1.92;;;19.70;99.90;;;;;;4989659;28;20053;-82
2022/05/11 12:46:22;;;;;;;13.68;3.55;;;19.60;99.90;;;;;;4989288;28;20097;-82
2022/05/11 12:48:56;;;;;;;9.38;2.83;;;19.30;99.90;;;;;;4988497;28;21003;-82
2022/05/11 12:51:41;;;;;;;9.45;2.47;;;19.60;99.90;;;;;;4988179;28;20408;-82
2022/05/11 12:54:09;;;;;;;8.65;2.00;;;19.70;99.90;;;;;;4989476;28;20412;-80
2022/05/11 12:56:41;;;;;;;12.82;2.67;;;19.60;99.90;;;;;;4989394;28;20053;-80
2022/05/11 12:59:30;;;;;;;8.23;1.92;;;19.50;99.90;;;;;;4987943;28;20065;-82
2022/05/11 13:02:27;;;;;;;16.10;4.28;;;19.70;99.90;;;;;;4989532;28;20044;-82
2022/05/11 13:05:00;;;;;;;12.98;3.15;;;19.80;99.90;;;;;;4986917;28;20230;-83
2022/05/11 13:07:43;;;;;;;11.70;3.30;;;19.50;99.90;;;;;;4987757;28;20092;-82
2022/05/11 13:10:17;;;;;;;11.40;3.42;;;19.20;99.90;;;;;;4988737;28;20049;-82
2022/05/11 13:12:49;;;;;;;13.98;3.17;;;18.90;99.90;;;;;;4987552;28;20050;-82
2022/05/11 13:15:40;;;;;;;12.70;2.83;;;18.90;99.90;;;;;;4988590;28;20042;-83
2022/05/11 13:18:11;;;;;;;9.38;2.65;;;18.80;99.90;;;;;;4986833;28;20045;-84
2022/05/11 13:20:42;;;;;;;16.52;4.10;;;18.40;99.90;;;;;;4988974;28;20050;-83
2022/05/11 13:23:24;;;;;;;14.68;4.50;;;18.20;99.90;;;;;;4988639;28;20044;-84
2022/05/11 13:25:54;;;;;;;15.50;4.40;;;18.00;99.90;;;;;;5002768;28;20145;-83
2022/05/11 13:28:24;;;;;;;12.98;3.47;;;18.00;99.90;;;;;;4988156;28;20130;-78
2022/05/11 13:30:54;;;;;;;11.48;2.78;;;18.00;99.90;;;;;;4988779;28;20053;-83
2022/05/11 13:33:35;;;;;;;11.80;3.10;;;18.10;99.90;;;;;;4987502;28;20089;-78
2022/05/11 13:36:19;;;;;;;15.05;3.55;;;18.10;99.90;;;;;;4988771;28;20333;-82